Rockland, Maine
Current Conditions -  °F | °C
As of 10:55 PM on Wednesday 22 Oct 2014 (Local Time) from KRKD Reporting Station
Overcast Overcast  
Wind Chill: 40°   Ceiling: 1000
Heat Index: 48°   Visibility: 5mi
Dew Point: 45°   Wind: 24mph
Humidity: 87%   Direction: 40°NE
Pressure: 30.01"   Gusts: 36mph
Location:  44.1°N, 69.11°W
Report Text: KRKD 230255Z AUTO 04021G31KT 5SM OVC010 09/07 A3001 RMK AO1 57014
Loading
Personal Weather Stations






























Interactive Weather Map New forecast layout! Learn more

10-Day Weather Forecast

Advertisements
Track Severe Weather on mobile